createdAt,value
2018-10-07T00:00:02.075Z,16.3888888889
2018-10-07T00:00:14.261Z,16.3888888889
2018-10-07T00:00:26.449Z,16.3888888889
2018-10-07T00:00:38.679Z,16.4444444444
2018-10-07T00:00:50.904Z,16.3888888889
2018-10-07T00:01:03.125Z,16.3888888889
2018-10-07T00:01:15.308Z,16.3888888889
2018-10-07T00:01:27.490Z,16.3888888889
2018-10-07T00:01:39.657Z,16.3888888889
2018-10-07T00:01:51.954Z,16.3888888889
2018-10-07T00:02:04.123Z,16.3888888889
2018-10-07T00:02:16.315Z,16.3888888889
2018-10-07T00:02:28.485Z,16.3333333333
2018-10-07T00:02:40.640Z,16.3333333333
2018-10-07T00:02:52.796Z,16.3333333333
2018-10-07T00:03:04.960Z,16.3333333333
2018-10-07T00:03:17.111Z,16.3333333333
2018-10-07T00:03:29.299Z,16.3333333333
2018-10-07T00:03:41.463Z,16.3333333333
2018-10-07T00:03:53.777Z,16.3333333333
2018-10-07T00:04:05.928Z,16.3333333333
2018-10-07T00:04:18.098Z,16.3333333333
2018-10-07T00:04:30.293Z,16.3333333333
2018-10-07T00:04:42.473Z,16.3333333333
2018-10-07T00:04:54.742Z,16.3333333333
2018-10-07T00:05:06.906Z,16.3333333333
2018-10-07T00:05:19.076Z,16.3333333333
2018-10-07T00:05:31.258Z,16.3333333333
2018-10-07T00:05:43.435Z,16.3333333333
2018-10-07T00:05:55.582Z,16.3333333333
2018-10-07T00:06:07.755Z,16.3333333333
2018-10-07T00:06:19.922Z,16.3333333333
2018-10-07T00:06:32.303Z,16.3333333333
2018-10-07T00:06:44.499Z,16.3333333333
2018-10-07T00:06:56.663Z,16.3333333333
2018-10-07T00:07:08.837Z,16.3333333333
2018-10-07T00:07:21.004Z,16.3333333333
2018-10-07T00:07:33.176Z,16.3333333333
2018-10-07T00:07:45.360Z,16.3333333333
2018-10-07T00:07:57.530Z,16.3333333333
2018-10-07T00:08:09.706Z,16.3333333333
2018-10-07T00:08:21.891Z,16.3333333333
2018-10-07T00:08:34.060Z,16.3333333333
2018-10-07T00:08:46.204Z,16.3333333333
2018-10-07T00:08:58.368Z,16.3333333333
2018-10-07T00:09:10.536Z,16.3333333333
2018-10-07T00:09:22.875Z,16.3333333333
2018-10-07T00:09:35.021Z,16.3333333333
2018-10-07T00:09:47.170Z,16.3333333333
2018-10-07T00:09:59.346Z,16.3333333333
2018-10-07T00:10:11.545Z,16.3333333333
2018-10-07T00:10:23.718Z,16.3333333333
2018-10-07T00:10:35.897Z,16.3333333333
2018-10-07T00:10:48.057Z,16.3333333333
2018-10-07T00:11:00.229Z,16.3333333333
2018-10-07T00:11:12.398Z,16.3333333333
2018-10-07T00:11:24.561Z,16.3333333333
2018-10-07T00:11:36.721Z,16.3333333333
2018-10-07T00:11:48.901Z,16.3333333333
2018-10-07T00:12:01.085Z,16.3333333333
2018-10-07T00:12:13.290Z,16.3333333333
2018-10-07T00:12:25.462Z,16.3333333333
2018-10-07T00:12:37.820Z,16.3333333333
2018-10-07T00:12:49.995Z,16.3333333333
2018-10-07T00:13:02.337Z,16.3333333333
2018-10-07T00:13:14.548Z,16.3333333333
2018-10-07T00:13:26.816Z,16.3333333333
2018-10-07T00:13:38.973Z,16.3333333333
2018-10-07T00:13:51.143Z,16.3333333333
2018-10-07T00:14:03.313Z,16.3333333333
2018-10-07T00:14:15.495Z,16.3333333333
2018-10-07T00:14:27.663Z,16.3333333333
2018-10-07T00:14:39.812Z,16.3333333333
2018-10-07T00:14:52.002Z,16.2777777778
2018-10-07T00:15:04.161Z,16.2777777778
2018-10-07T00:15:16.349Z,16.2777777778
2018-10-07T00:15:28.516Z,16.2777777778
2018-10-07T00:15:40.656Z,16.2777777778
2018-10-07T00:15:52.802Z,16.2777777778
2018-10-07T00:16:04.965Z,16.2777777778
2018-10-07T00:16:17.128Z,16.2777777778
2018-10-07T00:16:29.363Z,16.2777777778
2018-10-07T00:16:41.520Z,16.2777777778
2018-10-07T00:16:53.668Z,16.2777777778
2018-10-07T00:17:05.818Z,16.2777777778
2018-10-07T00:17:18.280Z,16.2222222222
2018-10-07T00:17:30.431Z,16.2222222222
2018-10-07T00:17:42.577Z,16.2777777778
2018-10-07T00:17:54.729Z,16.2777777778
2018-10-07T00:18:06.882Z,16.2222222222
2018-10-07T00:18:19.063Z,16.2222222222
2018-10-07T00:18:31.220Z,16.2222222222
2018-10-07T00:18:43.369Z,16.2222222222
2018-10-07T00:18:55.539Z,16.2222222222
2018-10-07T00:19:07.698Z,16.2222222222
2018-10-07T00:19:19.872Z,16.2222222222
2018-10-07T00:19:32.022Z,16.2222222222
2018-10-07T00:19:44.184Z,16.1666666667
2018-10-07T00:19:56.546Z,16.1666666667
2018-10-07T00:20:08.690Z,16.2222222222
2018-10-07T00:20:20.848Z,16.1666666667
2018-10-07T00:20:33.011Z,16.1666666667
2018-10-07T00:20:45.163Z,16.1666666667
2018-10-07T00:20:57.354Z,16.1666666667
2018-10-07T00:21:09.504Z,16.1666666667
2018-10-07T00:21:21.828Z,16.1666666667
2018-10-07T00:21:34.022Z,16.1666666667
2018-10-07T00:21:46.185Z,16.1111111111
2018-10-07T00:21:58.336Z,16.1666666667
2018-10-07T00:22:10.555Z,16.1111111111
2018-10-07T00:22:22.763Z,16.1666666667
2018-10-07T00:22:34.934Z,16.1111111111
2018-10-07T00:22:47.095Z,16.1111111111
2018-10-07T00:22:59.241Z,16.1111111111
2018-10-07T00:23:11.423Z,16.0555555556
2018-10-07T00:23:23.603Z,16.0555555556
2018-10-07T00:23:35.746Z,16.0555555556
2018-10-07T00:23:47.936Z,16.1111111111
2018-10-07T00:24:00.120Z,16.1111111111
2018-10-07T00:24:12.505Z,16.0555555556
2018-10-07T00:24:24.686Z,16.0555555556
2018-10-07T00:24:36.868Z,16.0555555556
2018-10-07T00:24:49.043Z,16.0555555556
2018-10-07T00:25:01.186Z,16.0555555556
2018-10-07T00:25:13.348Z,16.0555555556
2018-10-07T00:25:25.504Z,16.0555555556
2018-10-07T00:25:37.657Z,16.0555555556
2018-10-07T00:25:49.816Z,16
2018-10-07T00:26:01.976Z,16
2018-10-07T00:26:14.144Z,16
2018-10-07T00:26:26.318Z,16
2018-10-07T00:26:38.469Z,16
2018-10-07T00:26:50.614Z,16
2018-10-07T00:27:02.751Z,16
2018-10-07T00:27:14.906Z,16
2018-10-07T00:27:27.049Z,15.9444444444
2018-10-07T00:27:39.249Z,15.9444444444
2018-10-07T00:27:51.417Z,15.9444444444
2018-10-07T00:28:03.564Z,15.9444444444
2018-10-07T00:28:15.706Z,15.9444444444
2018-10-07T00:28:27.866Z,15.9444444444
2018-10-07T00:28:40.035Z,15.9444444444
2018-10-07T00:28:52.198Z,15.9444444444
2018-10-07T00:29:04.358Z,15.9444444444
2018-10-07T00:29:16.590Z,15.8888888889
2018-10-07T00:29:28.770Z,15.9444444444
2018-10-07T00:29:40.932Z,15.8888888889
2018-10-07T00:29:53.099Z,15.8888888889
2018-10-07T00:30:05.283Z,15.8888888889
2018-10-07T00:30:17.467Z,15.8888888889
2018-10-07T00:30:29.625Z,15.8888888889
2018-10-07T00:30:41.910Z,15.8888888889
2018-10-07T00:30:54.094Z,15.8888888889
2018-10-07T00:31:06.258Z,15.8888888889
2018-10-07T00:31:18.414Z,15.8888888889
2018-10-07T00:31:30.712Z,15.8333333333
2018-10-07T00:31:42.851Z,15.8888888889
2018-10-07T00:31:54.992Z,15.8888888889
2018-10-07T00:32:07.167Z,15.8333333333
2018-10-07T00:32:19.319Z,15.8333333333
2018-10-07T00:32:31.477Z,15.8333333333
2018-10-07T00:32:43.671Z,15.8333333333
2018-10-07T00:32:55.835Z,15.8333333333
2018-10-07T00:33:08.036Z,15.8333333333
2018-10-07T00:33:20.203Z,15.8333333333
2018-10-07T00:33:32.528Z,15.8333333333
2018-10-07T00:33:44.854Z,15.8333333333
2018-10-07T00:33:57.050Z,15.8333333333
2018-10-07T00:34:09.237Z,15.8333333333
2018-10-07T00:34:21.399Z,15.8333333333
2018-10-07T00:34:33.580Z,15.8333333333
2018-10-07T00:34:45.719Z,15.7777777778
2018-10-07T00:34:57.877Z,15.7777777778
2018-10-07T00:35:10.043Z,15.7777777778
2018-10-07T00:35:22.208Z,15.7777777778
2018-10-07T00:35:34.464Z,15.7777777778
2018-10-07T00:35:46.621Z,15.7777777778
2018-10-07T00:35:58.935Z,15.7777777778
2018-10-07T00:36:11.120Z,15.7777777778
2018-10-07T00:36:23.460Z,15.7777777778
2018-10-07T00:36:35.619Z,15.7777777778
2018-10-07T00:36:47.882Z,15.7222222222
2018-10-07T00:37:00.063Z,15.7777777778
2018-10-07T00:37:12.236Z,15.7777777778
2018-10-07T00:37:24.468Z,15.7222222222
2018-10-07T00:37:36.648Z,15.7222222222
2018-10-07T00:37:48.810Z,15.7222222222
2018-10-07T00:38:01.647Z,15.7222222222
2018-10-07T00:38:13.789Z,15.7222222222
2018-10-07T00:38:25.987Z,15.7222222222
2018-10-07T00:38:38.145Z,15.7222222222
2018-10-07T00:38:50.301Z,15.6666666667
2018-10-07T00:39:02.467Z,15.7222222222
2018-10-07T00:39:14.617Z,15.7222222222
2018-10-07T00:39:26.775Z,15.7222222222
2018-10-07T00:39:39.034Z,15.7222222222
2018-10-07T00:39:51.349Z,15.6666666667
2018-10-07T00:40:03.555Z,15.6666666667
2018-10-07T00:40:15.728Z,15.6666666667
2018-10-07T00:40:27.895Z,15.6666666667
2018-10-07T00:40:40.068Z,15.6666666667
2018-10-07T00:40:52.254Z,15.6666666667
2018-10-07T00:41:04.426Z,15.6666666667
2018-10-07T00:41:16.593Z,15.6666666667
2018-10-07T00:41:28.759Z,15.6666666667
2018-10-07T00:41:41.050Z,15.6666666667
2018-10-07T00:41:53.202Z,15.6666666667
2018-10-07T00:42:05.387Z,15.6666666667
2018-10-07T00:42:17.555Z,15.6666666667
2018-10-07T00:42:29.716Z,15.6666666667
2018-10-07T00:42:42.054Z,15.6111111111
2018-10-07T00:42:54.212Z,15.6111111111
2018-10-07T00:43:06.361Z,15.6111111111
2018-10-07T00:43:18.622Z,15.6666666667
2018-10-07T00:43:30.779Z,15.6111111111
2018-10-07T00:43:42.943Z,15.6111111111
2018-10-07T00:43:55.092Z,15.6111111111
2018-10-07T00:44:07.333Z,15.6111111111
2018-10-07T00:44:19.495Z,15.6111111111
2018-10-07T00:44:31.681Z,15.6111111111
2018-10-07T00:44:43.873Z,15.5555555556
2018-10-07T00:44:56.057Z,15.5555555556
2018-10-07T00:45:08.834Z,15.5555555556
2018-10-07T00:45:21.038Z,15.5555555556
2018-10-07T00:45:33.184Z,15.5555555556
2018-10-07T00:45:45.323Z,15.5555555556
2018-10-07T00:45:57.475Z,15.5555555556
2018-10-07T00:46:09.641Z,15.5555555556
2018-10-07T00:46:21.803Z,15.5555555556
2018-10-07T00:46:33.974Z,15.5555555556
2018-10-07T00:46:46.143Z,15.5
2018-10-07T00:46:58.301Z,15.5555555556
2018-10-07T00:47:10.468Z,15.5555555556
2018-10-07T00:47:22.634Z,15.5555555556
2018-10-07T00:47:34.811Z,15.5555555556
2018-10-07T00:47:46.958Z,15.5
2018-10-07T00:47:59.142Z,15.5555555556
2018-10-07T00:48:11.308Z,15.5
2018-10-07T00:48:23.472Z,15.5555555556
2018-10-07T00:48:35.639Z,15.5
2018-10-07T00:48:47.787Z,15.5
2018-10-07T00:48:59.934Z,15.5
2018-10-07T00:49:12.075Z,15.5
2018-10-07T00:49:24.245Z,15.5
2018-10-07T00:49:36.602Z,15.5
2018-10-07T00:49:48.775Z,15.4444444444
2018-10-07T00:50:00.948Z,15.5
2018-10-07T00:50:13.245Z,15.5
2018-10-07T00:50:25.601Z,15.4444444444
2018-10-07T00:50:37.757Z,15.4444444444
2018-10-07T00:50:49.950Z,15.4444444444
2018-10-07T00:51:02.132Z,15.4444444444
2018-10-07T00:51:14.304Z,15.4444444444
2018-10-07T00:51:26.467Z,15.4444444444
2018-10-07T00:51:38.607Z,15.4444444444
2018-10-07T00:51:50.768Z,15.4444444444
2018-10-07T00:52:02.950Z,15.4444444444
2018-10-07T00:52:15.105Z,15.4444444444
2018-10-07T00:52:27.267Z,15.5
2018-10-07T00:52:39.437Z,15.4444444444
2018-10-07T00:52:51.600Z,15.4444444444
2018-10-07T00:53:03.760Z,15.4444444444
2018-10-07T00:53:16.344Z,15.4444444444
2018-10-07T00:53:28.501Z,15.4444444444
2018-10-07T00:53:40.668Z,15.4444444444
2018-10-07T00:53:52.881Z,15.3888888889
2018-10-07T00:54:05.027Z,15.4444444444
2018-10-07T00:54:17.186Z,15.3888888889
2018-10-07T00:54:29.357Z,15.4444444444
2018-10-07T00:54:41.595Z,15.3888888889
2018-10-07T00:54:53.768Z,15.4444444444
2018-10-07T00:55:05.950Z,15.3888888889
2018-10-07T00:55:18.580Z,15.3888888889
2018-10-07T00:55:30.769Z,15.3888888889
2018-10-07T00:55:42.928Z,15.3888888889
2018-10-07T00:55:55.074Z,15.3333333333
2018-10-07T00:56:07.239Z,15.3333333333
2018-10-07T00:56:19.401Z,15.3333333333
2018-10-07T00:56:31.548Z,15.3888888889
2018-10-07T00:56:43.697Z,15.3333333333
2018-10-07T00:56:55.855Z,15.3333333333
2018-10-07T00:57:08.026Z,15.3333333333
2018-10-07T00:57:20.197Z,15.3333333333
2018-10-07T00:57:32.514Z,15.2777777778
2018-10-07T00:57:44.696Z,15.2777777778
2018-10-07T00:57:56.887Z,15.2777777778
2018-10-07T00:58:09.030Z,15.2777777778
2018-10-07T00:58:21.364Z,15.2777777778
2018-10-07T00:58:33.558Z,15.2777777778
2018-10-07T00:58:45.699Z,15.2777777778
2018-10-07T00:58:57.842Z,15.2777777778
2018-10-07T00:59:10.014Z,15.2777777778
2018-10-07T00:59:22.161Z,15.2222222222
2018-10-07T00:59:34.311Z,15.2222222222
2018-10-07T00:59:46.472Z,15.2222222222
2018-10-07T00:59:58.737Z,15.2222222222
2018-10-07T01:00:10.940Z,15.2222222222
2018-10-07T01:00:23.122Z,15.2222222222
2018-10-07T01:00:35.299Z,15.2222222222
2018-10-07T01:00:47.495Z,15.2222222222
2018-10-07T01:00:59.681Z,15.2222222222
2018-10-07T01:01:11.858Z,15.1666666667
2018-10-07T01:01:24.046Z,15.1666666667
2018-10-07T01:01:36.210Z,15.1666666667
2018-10-07T01:01:48.388Z,15.1666666667
2018-10-07T01:02:00.642Z,15.1666666667
2018-10-07T01:02:12.842Z,15.1666666667
2018-10-07T01:02:25.026Z,15.1666666667
2018-10-07T01:02:37.179Z,15.1666666667
2018-10-07T01:02:49.336Z,15.1666666667
2018-10-07T01:03:01.488Z,15.1666666667
2018-10-07T01:03:13.683Z,15.1111111111
2018-10-07T01:03:25.817Z,15.1111111111
2018-10-07T01:03:37.970Z,15.1666666667
2018-10-07T01:03:50.151Z,15.1111111111
2018-10-07T01:04:02.619Z,15.1111111111
2018-10-07T01:04:14.770Z,15.1111111111
2018-10-07T01:04:26.932Z,15.1111111111
2018-10-07T01:04:39.088Z,15.1111111111
2018-10-07T01:04:51.365Z,15.1111111111
2018-10-07T01:05:03.525Z,15.1111111111
2018-10-07T01:05:15.677Z,15.1111111111
2018-10-07T01:05:27.838Z,15.0555555556
2018-10-07T01:05:39.983Z,15.0555555556
2018-10-07T01:05:52.144Z,15.0555555556
2018-10-07T01:06:04.325Z,15.0555555556
2018-10-07T01:06:16.498Z,15.0555555556
2018-10-07T01:06:28.645Z,15.0555555556
2018-10-07T01:06:41.386Z,15.0555555556
2018-10-07T01:06:53.524Z,15.0555555556
2018-10-07T01:07:05.678Z,15.0555555556
2018-10-07T01:07:17.864Z,15.0555555556
2018-10-07T01:07:30.100Z,15.0555555556
2018-10-07T01:07:42.303Z,15
2018-10-07T01:07:54.472Z,15
2018-10-07T01:08:06.621Z,15
2018-10-07T01:08:18.751Z,15
2018-10-07T01:08:30.925Z,15
2018-10-07T01:08:43.084Z,15
2018-10-07T01:08:55.242Z,15
2018-10-07T01:09:07.417Z,15
2018-10-07T01:09:19.567Z,15
2018-10-07T01:09:31.750Z,15
2018-10-07T01:09:43.916Z,15
2018-10-07T01:09:56.089Z,15
2018-10-07T01:10:08.263Z,14.9444444444
2018-10-07T01:10:20.432Z,15
2018-10-07T01:10:32.594Z,14.9444444444
2018-10-07T01:10:44.743Z,14.9444444444
2018-10-07T01:10:56.891Z,14.9444444444
2018-10-07T01:11:09.045Z,14.9444444444
2018-10-07T01:11:21.232Z,14.9444444444
2018-10-07T01:11:33.429Z,14.9444444444
2018-10-07T01:11:45.874Z,14.9444444444
2018-10-07T01:11:58.041Z,14.8888888889
2018-10-07T01:12:10.207Z,14.8888888889
2018-10-07T01:12:22.380Z,14.8888888889
2018-10-07T01:12:34.544Z,14.8888888889
2018-10-07T01:12:46.865Z,14.8888888889
2018-10-07T01:12:59.003Z,14.8333333333
2018-10-07T01:13:11.244Z,14.8333333333
2018-10-07T01:13:23.605Z,14.8333333333
2018-10-07T01:13:35.781Z,14.8333333333
2018-10-07T01:13:47.960Z,14.8333333333
2018-10-07T01:14:00.140Z,14.8333333333
2018-10-07T01:14:12.305Z,14.8333333333
2018-10-07T01:14:24.501Z,14.8333333333
2018-10-07T01:14:36.689Z,14.8333333333
2018-10-07T01:14:48.866Z,14.7777777778
2018-10-07T01:15:01.046Z,14.7777777778
2018-10-07T01:15:13.242Z,14.7777777778
2018-10-07T01:15:25.395Z,14.7777777778
2018-10-07T01:15:37.556Z,14.7777777778
2018-10-07T01:15:49.728Z,14.7777777778
2018-10-07T01:16:01.954Z,14.7222222222
2018-10-07T01:16:14.244Z,14.7777777778
2018-10-07T01:16:26.399Z,14.7222222222
2018-10-07T01:16:38.546Z,14.7777777778
2018-10-07T01:16:50.707Z,14.7222222222
2018-10-07T01:17:02.882Z,14.7222222222
2018-10-07T01:17:15.195Z,14.7222222222
2018-10-07T01:17:27.352Z,14.7222222222
2018-10-07T01:17:39.491Z,14.7222222222
2018-10-07T01:17:51.702Z,14.7222222222
2018-10-07T01:18:03.897Z,14.7222222222
2018-10-07T01:18:16.050Z,14.6666666667
2018-10-07T01:18:28.212Z,14.6666666667
2018-10-07T01:18:40.346Z,14.7222222222
2018-10-07T01:18:52.522Z,14.6666666667
2018-10-07T01:19:04.739Z,14.6666666667
2018-10-07T01:19:16.909Z,14.6666666667
2018-10-07T01:19:29.068Z,14.6666666667
2018-10-07T01:19:41.239Z,14.6666666667
2018-10-07T01:19:53.589Z,14.6666666667
2018-10-07T01:20:05.766Z,14.6666666667
2018-10-07T01:20:18.067Z,14.6666666667
2018-10-07T01:20:30.406Z,14.6666666667
2018-10-07T01:20:42.569Z,14.6666666667
2018-10-07T01:20:54.744Z,14.6666666667
2018-10-07T01:21:06.918Z,14.6666666667
2018-10-07T01:21:19.231Z,14.6666666667
2018-10-07T01:21:31.397Z,14.6666666667
2018-10-07T01:21:43.569Z,14.6666666667
2018-10-07T01:21:55.779Z,14.6666666667
2018-10-07T01:22:08.006Z,14.6666666667
2018-10-07T01:22:20.190Z,14.6666666667
2018-10-07T01:22:32.350Z,14.6666666667
2018-10-07T01:22:44.544Z,14.6666666667
2018-10-07T01:22:56.717Z,14.6666666667
2018-10-07T01:23:08.886Z,14.6666666667
2018-10-07T01:23:21.049Z,14.6666666667
2018-10-07T01:23:33.196Z,14.6666666667
2018-10-07T01:23:45.366Z,14.6666666667
2018-10-07T01:23:57.510Z,14.6666666667
2018-10-07T01:24:10.084Z,14.6666666667
2018-10-07T01:24:22.245Z,14.6666666667
2018-10-07T01:24:34.400Z,14.7222222222
2018-10-07T01:24:46.588Z,14.6666666667
2018-10-07T01:24:58.731Z,14.6666666667
2018-10-07T01:25:10.891Z,14.6666666667
2018-10-07T01:25:23.042Z,14.6666666667
2018-10-07T01:25:35.182Z,14.6666666667
2018-10-07T01:25:47.452Z,14.6666666667
2018-10-07T01:25:59.619Z,14.6666666667
2018-10-07T01:26:11.794Z,14.7222222222
2018-10-07T01:26:23.993Z,14.7222222222
2018-10-07T01:26:36.137Z,14.7222222222
2018-10-07T01:26:48.304Z,14.7222222222
2018-10-07T01:27:00.516Z,14.6666666667
2018-10-07T01:27:12.671Z,14.7222222222
2018-10-07T01:27:24.835Z,14.7222222222
2018-10-07T01:27:36.992Z,14.6666666667
2018-10-07T01:27:49.168Z,14.7222222222
2018-10-07T01:28:01.414Z,14.7222222222
2018-10-07T01:28:13.595Z,14.6666666667
2018-10-07T01:28:25.782Z,14.7222222222
2018-10-07T01:28:37.935Z,14.7222222222
2018-10-07T01:28:50.095Z,14.7222222222
2018-10-07T01:29:02.288Z,14.7222222222
2018-10-07T01:29:14.555Z,14.7222222222
2018-10-07T01:29:26.735Z,14.7222222222
2018-10-07T01:29:38.918Z,14.7222222222
2018-10-07T01:29:51.108Z,14.7222222222
2018-10-07T01:30:03.303Z,14.7222222222
2018-10-07T01:30:15.491Z,14.7222222222
2018-10-07T01:30:27.654Z,14.7777777778
2018-10-07T01:30:39.877Z,14.7222222222
2018-10-07T01:30:52.038Z,14.7222222222
2018-10-07T01:31:04.207Z,14.7777777778
2018-10-07T01:31:16.443Z,14.7777777778
2018-10-07T01:31:28.615Z,14.7777777778
2018-10-07T01:31:40.793Z,14.7777777778
2018-10-07T01:31:52.955Z,14.7777777778
2018-10-07T01:32:05.104Z,14.7777777778
2018-10-07T01:32:17.421Z,14.7777777778
2018-10-07T01:32:29.567Z,14.7777777778
2018-10-07T01:32:41.718Z,14.7777777778
2018-10-07T01:32:53.892Z,14.7777777778
2018-10-07T01:33:06.074Z,14.7777777778
2018-10-07T01:33:18.223Z,14.7777777778
2018-10-07T01:33:30.395Z,14.7777777778
2018-10-07T01:33:42.560Z,14.8333333333
2018-10-07T01:33:54.726Z,14.8333333333
2018-10-07T01:34:06.874Z,14.8333333333
2018-10-07T01:34:19.051Z,14.8333333333
2018-10-07T01:34:31.205Z,14.8333333333
2018-10-07T01:34:43.365Z,14.8333333333
2018-10-07T01:34:55.521Z,14.8333333333
2018-10-07T01:35:07.688Z,14.8333333333
2018-10-07T01:35:19.879Z,14.8333333333
2018-10-07T01:35:32.550Z,14.8888888889
2018-10-07T01:35:44.726Z,14.8333333333
2018-10-07T01:35:57.110Z,14.8888888889
2018-10-07T01:36:09.286Z,14.8888888889
2018-10-07T01:36:21.447Z,14.8888888889
2018-10-07T01:36:33.602Z,14.8888888889
2018-10-07T01:36:45.812Z,14.9444444444
2018-10-07T01:36:57.972Z,14.8888888889
2018-10-07T01:37:10.199Z,14.8888888889
2018-10-07T01:37:22.413Z,14.8888888889
2018-10-07T01:37:34.606Z,14.8888888889
2018-10-07T01:37:46.777Z,14.9444444444
2018-10-07T01:37:59.203Z,14.9444444444
2018-10-07T01:38:11.526Z,14.9444444444
2018-10-07T01:38:23.832Z,14.9444444444
2018-10-07T01:38:36.062Z,14.9444444444
2018-10-07T01:38:48.225Z,14.9444444444
2018-10-07T01:39:00.369Z,15
2018-10-07T01:39:12.529Z,14.9444444444
2018-10-07T01:39:24.691Z,15
2018-10-07T01:39:36.833Z,15
2018-10-07T01:39:49.147Z,15
2018-10-07T01:40:01.313Z,15
2018-10-07T01:40:13.475Z,15.0555555556
2018-10-07T01:40:25.658Z,15.0555555556
2018-10-07T01:40:37.821Z,15.0555555556
2018-10-07T01:40:50.378Z,15.0555555556
2018-10-07T01:41:02.526Z,15.0555555556
2018-10-07T01:41:14.685Z,15.0555555556
2018-10-07T01:41:26.843Z,15.0555555556
2018-10-07T01:41:39.007Z,15.0555555556
2018-10-07T01:41:51.194Z,15.0555555556
2018-10-07T01:42:03.353Z,15.0555555556
2018-10-07T01:42:15.528Z,15.1111111111
2018-10-07T01:42:27.690Z,15.0555555556
2018-10-07T01:42:39.862Z,15.0555555556
2018-10-07T01:42:52.017Z,15.0555555556
2018-10-07T01:43:04.171Z,15.1111111111
2018-10-07T01:43:16.364Z,15.1111111111
2018-10-07T01:43:28.538Z,15.1111111111
2018-10-07T01:43:40.749Z,15.1111111111
2018-10-07T01:43:52.902Z,15.1111111111
2018-10-07T01:44:05.590Z,15.1111111111
2018-10-07T01:44:17.837Z,15.1111111111
2018-10-07T01:44:29.979Z,15.1111111111
2018-10-07T01:44:42.120Z,15.1111111111
2018-10-07T01:44:54.285Z,15.1111111111
2018-10-07T01:45:06.609Z,15.1111111111
2018-10-07T01:45:19.003Z,15.1111111111
2018-10-07T01:45:31.153Z,15.1666666667
2018-10-07T01:45:43.317Z,15.1111111111
2018-10-07T01:45:55.530Z,15.1111111111
2018-10-07T01:46:07.669Z,15.1666666667
2018-10-07T01:46:19.825Z,15.1666666667
2018-10-07T01:46:31.975Z,15.1666666667
2018-10-07T01:46:44.143Z,15.1666666667
2018-10-07T01:46:56.297Z,15.1666666667
2018-10-07T01:47:08.454Z,15.1666666667
2018-10-07T01:47:20.616Z,15.1666666667
2018-10-07T01:47:32.774Z,15.1666666667
2018-10-07T01:47:44.923Z,15.1666666667
2018-10-07T01:47:57.075Z,15.1666666667
2018-10-07T01:48:09.225Z,15.1666666667
2018-10-07T01:48:21.367Z,15.1666666667
2018-10-07T01:48:33.537Z,15.1666666667
2018-10-07T01:48:45.713Z,15.1666666667
2018-10-07T01:48:57.875Z,15.1666666667
2018-10-07T01:49:10.094Z,15.1666666667
2018-10-07T01:49:22.248Z,15.1666666667
2018-10-07T01:49:34.846Z,15.1666666667
2018-10-07T01:49:47.011Z,15.1111111111
2018-10-07T01:49:59.190Z,15.1666666667
2018-10-07T01:50:11.506Z,15.1666666667
2018-10-07T01:50:23.795Z,15.1666666667
2018-10-07T01:50:36.014Z,15.1666666667
2018-10-07T01:50:48.245Z,15.1666666667
2018-10-07T01:51:00.393Z,15.1111111111
2018-10-07T01:51:12.558Z,15.1111111111
2018-10-07T01:51:24.712Z,15.1666666667
2018-10-07T01:51:36.877Z,15.1666666667
2018-10-07T01:51:49.045Z,15.1666666667
2018-10-07T01:52:01.218Z,15.1666666667
2018-10-07T01:52:13.407Z,15.1111111111
2018-10-07T01:52:25.597Z,15.1111111111
2018-10-07T01:52:37.744Z,15.1111111111
2018-10-07T01:52:49.911Z,15.1111111111
2018-10-07T01:53:02.100Z,15.1666666667
2018-10-07T01:53:14.345Z,15.1666666667
2018-10-07T01:53:26.516Z,15.1111111111
2018-10-07T01:53:38.740Z,15.1111111111
2018-10-07T01:53:50.881Z,15.1111111111
2018-10-07T01:54:03.042Z,15.1666666667
2018-10-07T01:54:15.187Z,15.1111111111
2018-10-07T01:54:27.344Z,15.1111111111
2018-10-07T01:54:39.495Z,15.1111111111
2018-10-07T01:54:51.702Z,15.1666666667
2018-10-07T01:55:03.925Z,15.1111111111
2018-10-07T01:55:16.098Z,15.1666666667
2018-10-07T01:55:28.360Z,15.1666666667
2018-10-07T01:55:40.559Z,15.1111111111
2018-10-07T01:55:52.706Z,15.1666666667
2018-10-07T01:56:04.865Z,15.1111111111
2018-10-07T01:56:17.031Z,15.1666666667
2018-10-07T01:56:29.262Z,15.1666666667
2018-10-07T01:56:41.441Z,15.1666666667
2018-10-07T01:56:53.598Z,15.1666666667
2018-10-07T01:57:05.775Z,15.1666666667
2018-10-07T01:57:17.997Z,15.1666666667
2018-10-07T01:57:30.152Z,15.1666666667
2018-10-07T01:57:42.834Z,15.1666666667
2018-10-07T01:57:55.036Z,15.1666666667
2018-10-07T01:58:07.187Z,15.1666666667
2018-10-07T01:58:19.353Z,15.1666666667
2018-10-07T01:58:31.498Z,15.1666666667
2018-10-07T01:58:43.683Z,15.1666666667
2018-10-07T01:58:55.975Z,15.1111111111
2018-10-07T01:59:08.141Z,15.1666666667
2018-10-07T01:59:20.920Z,15.1111111111
2018-10-07T01:59:34.361Z,15.1111111111
2018-10-07T01:59:46.543Z,15.1666666667
2018-10-07T01:59:58.825Z,15.1111111111
2018-10-07T02:00:11.015Z,15.1111111111
2018-10-07T02:00:23.199Z,15.1666666667
2018-10-07T02:00:35.404Z,15.1111111111
2018-10-07T02:00:47.625Z,15.1111111111
2018-10-07T02:00:59.861Z,15.1111111111
2018-10-07T02:01:12.112Z,15.1111111111
2018-10-07T02:01:24.356Z,15.1111111111
2018-10-07T02:01:36.586Z,15.1111111111
2018-10-07T02:01:48.836Z,15.1111111111
2018-10-07T02:02:01.182Z,15.1111111111
2018-10-07T02:02:13.403Z,15.1111111111
2018-10-07T02:02:25.558Z,15.1111111111
2018-10-07T02:02:37.719Z,15.1111111111
2018-10-07T02:02:49.894Z,15.1111111111
2018-10-07T02:03:02.071Z,15.1111111111
2018-10-07T02:03:14.237Z,15.0555555556
2018-10-07T02:03:26.387Z,15.0555555556
2018-10-07T02:03:38.550Z,15.0555555556
2018-10-07T02:03:50.706Z,15.1111111111
2018-10-07T02:04:03.045Z,15.0555555556
2018-10-07T02:04:15.221Z,15.0555555556
2018-10-07T02:04:27.440Z,15.0555555556
2018-10-07T02:04:39.602Z,15.0555555556
2018-10-07T02:04:51.950Z,15
2018-10-07T02:05:05.058Z,15.0555555556
2018-10-07T02:05:18.357Z,15.0555555556
2018-10-07T02:05:30.533Z,15
2018-10-07T02:05:42.706Z,15.0555555556
2018-10-07T02:05:54.866Z,15
2018-10-07T02:06:07.023Z,15
2018-10-07T02:06:19.202Z,15
2018-10-07T02:06:31.702Z,15
2018-10-07T02:06:43.856Z,15
2018-10-07T02:06:56.034Z,15
2018-10-07T02:07:08.277Z,14.9444444444
2018-10-07T02:07:20.445Z,15